Time;durP1;ratioP1;P1;durP2;ratioP2;P2;SDS_P1;SDS_P2;PMS_P1;PMS_P2;Temp;Humidity;BMP_temperature;BMP_pressure;BME280_temperature;BME280_humidity;BME280_pressure;Samples;Min_cycle;Max_cycle;Signal;HPM_P1;HPM_P2
2022/06/23 00:01:30;;;;;;;7.23;3.97;;;19.30;42.40;;;;;;5072768;28;20419;-71
2022/06/23 00:03:57;;;;;;;7.43;4.30;;;19.20;43.20;;;;;;5072980;28;20443;-71
2022/06/23 00:06:38;;;;;;;6.30;3.83;;;19.20;43.90;;;;;;5072775;28;20466;-70
2022/06/23 00:09:41;;;;;;;5.27;4.00;;;19.20;43.80;;;;;;5072210;28;20421;-71
2022/06/23 00:12:18;;;;;;;6.50;4.63;;;19.20;43.40;;;;;;5030096;28;20413;-69
2022/06/23 00:14:48;;;;;;;7.57;4.40;;;19.20;43.20;;;;;;5067341;28;20404;-68
2022/06/23 00:17:23;;;;;;;3.53;3.10;;;19.30;43.10;;;;;;5072324;28;20771;-71
2022/06/23 00:19:48;;;;;;;5.07;3.93;;;19.30;42.80;;;;;;5071306;28;20514;-68
2022/06/23 00:22:17;;;;;;;6.77;4.30;;;19.30;42.30;;;;;;5072163;28;20491;-68
2022/06/23 00:24:45;;;;;;;9.73;3.67;;;19.30;41.60;;;;;;5072167;28;20174;-69
2022/06/23 00:27:16;;;;;;;4.23;2.53;;;19.30;41.30;;;;;;5072084;28;20495;-70
2022/06/23 00:29:44;;;;;;;12.10;3.37;;;19.30;41.40;;;;;;5070613;28;20412;-71
2022/06/23 00:32:12;;;;;;;4.87;3.33;;;19.30;41.60;;;;;;5070789;28;20420;-71
2022/06/23 00:34:41;;;;;;;12.00;4.60;;;19.20;42.00;;;;;;5071993;28;20427;-71
2022/06/23 00:37:18;;;;;;;6.07;3.43;;;19.20;41.80;;;;;;5072217;28;20484;-71
2022/06/23 00:40:04;;;;;;;7.60;4.70;;;19.20;41.80;;;;;;5071899;28;20903;-70
2022/06/23 00:42:37;;;;;;;5.80;3.47;;;19.10;42.30;;;;;;5071792;28;20422;-70
2022/06/23 00:45:15;;;;;;;6.90;4.77;;;19.10;41.90;;;;;;5071940;28;20434;-69
2022/06/23 00:48:14;;;;;;;4.40;4.00;;;18.90;42.50;;;;;;5071969;28;20459;-68
2022/06/23 00:50:50;;;;;;;4.60;4.17;;;18.80;43.10;;;;;;5072398;28;20412;-70
2022/06/23 00:53:19;;;;;;;9.00;3.60;;;18.70;44.70;;;;;;5072232;28;20870;-70
2022/06/23 00:55:47;;;;;;;5.10;3.17;;;18.70;44.00;;;;;;5072224;28;20783;-68
2022/06/23 00:58:26;;;;;;;7.40;4.67;;;18.60;44.10;;;;;;5071923;28;20956;-69
2022/06/23 01:00:56;;;;;;;5.93;3.97;;;18.60;44.80;;;;;;5071929;28;20576;-69
2022/06/23 01:03:31;;;;;;;8.83;4.60;;;18.60;44.30;;;;;;5071663;28;20585;-70
2022/06/23 01:05:58;;;;;;;6.87;3.90;;;18.50;44.90;;;;;;5071842;28;20407;-69
2022/06/23 01:08:33;;;;;;;9.00;4.37;;;18.50;45.10;;;;;;5071261;28;20462;-69
2022/06/23 01:11:22;;;;;;;6.23;3.80;;;18.50;45.30;;;;;;5071642;28;21040;-69
2022/06/23 01:14:00;;;;;;;10.67;3.90;;;18.40;44.50;;;;;;5071475;28;20423;-68
2022/06/23 01:16:40;;;;;;;7.57;3.80;;;18.40;45.00;;;;;;5071699;28;20529;-68
2022/06/23 01:19:34;;;;;;;32.00;5.20;;;18.30;46.60;;;;;;5071419;28;20404;-69
2022/06/23 01:22:03;;;;;;;6.67;3.80;;;18.30;46.00;;;;;;5071568;28;20405;-68
2022/06/23 01:24:48;;;;;;;5.60;4.07;;;18.20;45.90;;;;;;5070087;28;20435;-69
2022/06/23 01:27:50;;;;;;;8.37;4.50;;;18.10;46.30;;;;;;5070114;28;20448;-68
2022/06/23 04:13:55;;;;;;;4.13;3.10;;;18.40;40.80;;;;;;5072491;28;20439;-69
2022/06/23 04:16:24;;;;;;;8.80;4.40;;;18.50;40.00;;;;;;5072375;28;20423;-69
2022/06/23 04:18:51;;;;;;;5.73;3.13;;;18.60;40.00;;;;;;5071944;28;20823;-69
2022/06/23 04:21:20;;;;;;;11.53;2.90;;;18.60;39.20;;;;;;5072186;28;20412;-69
2022/06/23 04:23:50;;;;;;;6.20;3.40;;;18.70;38.70;;;;;;5072086;28;20431;-69
2022/06/23 04:26:39;;;;;;;5.87;3.43;;;18.70;38.70;;;;;;5072209;28;20419;-69
2022/06/23 04:29:16;;;;;;;4.97;3.13;;;18.70;38.70;;;;;;5070507;28;20515;-69
2022/06/23 04:31:50;;;;;;;7.40;3.83;;;18.70;38.70;;;;;;5071982;28;20416;-70
2022/06/23 04:34:24;;;;;;;6.67;3.73;;;18.70;38.70;;;;;;5071940;28;20781;-69
2022/06/23 04:36:49;;;;;;;4.33;3.47;;;18.80;38.80;;;;;;5070835;28;20941;-70
2022/06/23 04:39:37;;;;;;;14.80;4.40;;;18.80;38.60;;;;;;5070241;28;20425;-70
2022/06/23 04:42:22;;;;;;;7.60;3.53;;;18.80;38.10;;;;;;5071962;28;20256;-69
2022/06/23 04:44:52;;;;;;;5.73;2.47;;;18.90;37.80;;;;;;5071794;28;20407;-69
2022/06/23 04:47:22;;;;;;;6.57;2.87;;;19.00;36.90;;;;;;5071721;28;20451;-68
2022/06/23 04:49:53;;;;;;;8.07;3.00;;;19.10;36.60;;;;;;5071204;28;20427;-69
2022/06/23 04:52:45;;;;;;;3.30;2.53;;;19.40;35.30;;;;;;5071662;28;21067;-66
2022/06/23 04:55:28;;;;;;;7.03;2.70;;;20.00;35.30;;;;;;5069526;28;20452;-66
2022/06/23 04:58:05;;;;;;;9.47;4.27;;;21.50;29.30;;;;;;5071752;28;20415;-67
2022/06/23 05:00:45;;;;;;;7.60;4.10;;;23.10;26.30;;;;;;5071822;28;20760;-68
2022/06/23 05:03:32;;;;;;;8.43;7.93;;;24.60;22.60;;;;;;5071624;28;20470;-67
2022/06/23 05:06:09;;;;;;;9.77;9.27;;;25.90;19.40;;;;;;5071469;28;20419;-67
2022/06/23 05:08:40;;;;;;;9.30;8.80;;;26.80;16.40;;;;;;5070067;28;20462;-69
2022/06/23 05:11:20;;;;;;;10.07;9.63;;;27.80;16.10;;;;;;5071758;28;20924;-72
2022/06/23 05:14:00;;;;;;;11.67;10.97;;;28.40;13.30;;;;;;5071819;28;20514;-71
2022/06/23 05:16:38;;;;;;;13.13;12.17;;;29.20;12.30;;;;;;5071559;28;20447;-71
2022/06/23 05:19:10;;;;;;;11.93;11.20;;;29.90;11.50;;;;;;5071770;28;20411;-72
2022/06/23 05:21:42;;;;;;;11.93;11.43;;;30.50;10.20;;;;;;5071767;28;20433;-70
2022/06/23 05:24:17;;;;;;;13.50;12.10;;;31.20;8.80;;;;;;5071762;28;20432;-71
2022/06/23 05:26:52;;;;;;;13.33;12.33;;;31.80;7.40;;;;;;5071618;28;20871;-71
2022/06/23 05:29:42;;;;;;;12.70;12.20;;;32.20;7.00;;;;;;5071210;28;21132;-72
2022/06/23 05:32:21;;;;;;;13.43;12.63;;;32.70;6.60;;;;;;5071676;28;20416;-70
2022/06/23 05:34:56;;;;;;;13.43;12.93;;;33.30;6.00;;;;;;5070143;28;20434;-71
2022/06/23 05:37:38;;;;;;;13.83;13.23;;;34.00;4.90;;;;;;5071611;28;20407;-72
2022/06/23 05:40:19;;;;;;;14.00;13.30;;;34.00;3.80;;;;;;5071100;28;20420;-70
2022/06/23 05:42:48;;;;;;;13.70;13.10;;;34.40;3.50;;;;;;5071379;28;20546;-71
2022/06/23 05:45:20;;;;;;;13.97;13.33;;;34.60;3.00;;;;;;5071342;28;20412;-72
2022/06/23 05:47:46;;;;;;;14.33;13.63;;;34.60;2.30;;;;;;5071320;28;20451;-71
2022/06/23 05:50:18;;;;;;;12.90;12.40;;;34.90;2.40;;;;;;5071036;28;20419;-72
2022/06/23 05:53:00;;;;;;;14.03;13.40;;;35.10;1.30;;;;;;5071213;28;20856;-71
2022/06/23 05:55:44;;;;;;;13.20;12.70;;;35.00;1.70;;;;;;5071374;28;20412;-71
2022/06/23 05:58:44;;;;;;;13.90;13.10;;;35.30;1.30;;;;;;5070773;28;20895;-70
2022/06/23 06:01:36;;;;;;;14.03;13.43;;;35.30;1.00;;;;;;5071238;28;20810;-71
2022/06/23 06:04:25;;;;;;;14.60;13.80;;;35.20;1.00;;;;;;5069831;28;20432;-70
2022/06/23 06:06:50;;;;;;;13.80;13.30;;;35.30;1.00;;;;;;5065349;28;20457;-71
2022/06/23 06:09:37;;;;;;;13.80;13.30;;;35.80;1.00;;;;;;5070724;28;20811;-71
2022/06/23 06:12:12;;;;;;;14.03;13.50;;;36.30;1.00;;;;;;5069753;28;20212;-72
2022/06/23 06:14:45;;;;;;;14.50;13.80;;;36.70;1.00;;;;;;5070959;28;20419;-69
2022/06/23 06:17:18;;;;;;;14.20;13.60;;;37.20;1.00;;;;;;5071907;28;20864;-70
2022/06/23 06:19:44;;;;;;;13.87;13.23;;;36.80;1.00;;;;;;5074169;28;20499;-72
2022/06/23 06:22:31;;;;;;;14.47;13.77;;;37.20;1.00;;;;;;5074535;28;20499;-70
2022/06/23 06:25:00;;;;;;;14.27;13.67;;;37.20;1.00;;;;;;5055594;28;20202;-70
2022/06/23 06:27:26;;;;;;;14.07;13.37;;;37.00;1.00;;;;;;5070092;28;20471;-70
2022/06/23 06:29:52;;;;;;;14.60;13.90;;;37.40;1.00;;;;;;5069101;28;20459;-68
2022/06/23 06:32:33;;;;;;;15.00;14.30;;;37.70;1.00;;;;;;5090758;28;20181;-68
2022/06/23 06:35:31;;;;;;;14.93;14.23;;;38.00;1.00;;;;;;5090818;28;20403;-72
2022/06/23 06:38:09;;;;;;;15.13;14.33;;;38.50;1.00;;;;;;5062313;28;20432;-68
2022/06/23 06:40:36;;;;;;;14.30;13.70;;;38.70;1.00;;;;;;5064698;28;20428;-66
2022/06/23 06:43:20;;;;;;;14.23;13.43;;;38.90;1.00;;;;;;5069083;28;20903;-67
2022/06/23 06:45:46;;;;;;;15.53;14.67;;;39.00;1.00;;;;;;5070012;28;21000;-66
2022/06/23 06:48:19;;;;;;;14.60;14.00;;;39.10;1.00;;;;;;5052328;28;20555;-66
2022/06/23 06:50:47;;;;;;;14.37;13.80;;;38.90;1.00;;;;;;5050261;28;20421;-66
2022/06/23 06:53:23;;;;;;;13.93;13.27;;;39.00;1.00;;;;;;5053984;28;20954;-68
2022/06/23 06:56:02;;;;;;;14.00;13.30;;;38.20;1.00;;;;;;5055316;28;20515;-68
2022/06/23 06:58:36;;;;;;;14.27;13.67;;;37.10;1.00;;;;;;5070463;28;20694;-69
2022/06/23 07:01:07;;;;;;;14.30;13.70;;;36.00;1.00;;;;;;5053577;28;20528;-68
2022/06/23 07:03:35;;;;;;;13.43;12.83;;;35.30;1.00;;;;;;5048693;28;20448;-68
2022/06/23 07:06:33;;;;;;;13.77;12.70;;;35.00;1.00;;;;;;5050430;28;20470;-67
2022/06/23 07:09:13;;;;;;;14.10;13.50;;;34.40;1.00;;;;;;5047162;28;20464;-66
2022/06/23 07:11:48;;;;;;;14.67;13.70;;;33.30;1.20;;;;;;5057666;28;20429;-67
2022/06/23 07:14:46;;;;;;;13.67;12.77;;;33.20;2.10;;;;;;5049930;28;20514;-65
2022/06/23 07:17:24;;;;;;;13.20;12.60;;;33.20;1.20;;;;;;5059340;28;20819;-69
2022/06/23 07:20:01;;;;;;;13.27;12.60;;;33.00;1.50;;;;;;5067631;28;20722;-68
2022/06/23 07:22:34;;;;;;;12.97;12.47;;;32.80;1.90;;;;;;5058897;28;20421;-68
2022/06/23 07:25:18;;;;;;;13.10;12.50;;;33.00;1.40;;;;;;5052926;28;20432;-68
2022/06/23 07:27:46;;;;;;;15.20;14.43;;;34.00;1.00;;;;;;5052792;28;20460;-68
2022/06/23 07:30:15;;;;;;;14.10;13.50;;;35.20;1.00;;;;;;5052540;28;20479;-69
2022/06/23 07:33:07;;;;;;;14.63;13.83;;;35.60;1.00;;;;;;5053156;28;20802;-72
2022/06/23 07:35:39;;;;;;;14.50;13.60;;;36.30;1.00;;;;;;5054279;28;20430;-70
2022/06/23 07:38:08;;;;;;;14.27;13.57;;;36.30;1.00;;;;;;5052821;28;20413;-69
2022/06/23 07:40:48;;;;;;;13.90;13.10;;;36.60;1.00;;;;;;5053098;28;20500;-69
2022/06/23 07:43:23;;;;;;;13.53;12.93;;;36.50;1.00;;;;;;5053861;28;21128;-69
2022/06/23 07:45:56;;;;;;;13.97;13.37;;;35.60;1.00;;;;;;5066078;28;20464;-69
2022/06/23 07:48:23;;;;;;;13.60;12.93;;;34.80;1.00;;;;;;5052507;28;20488;-69
2022/06/23 07:50:49;;;;;;;14.20;13.60;;;35.70;1.00;;;;;;5053146;28;20935;-68
2022/06/23 07:53:20;;;;;;;14.30;13.60;;;36.20;1.00;;;;;;5052074;28;20496;-68
2022/06/23 07:55:47;;;;;;;14.03;13.10;;;36.20;1.00;;;;;;5072614;28;20193;-68
2022/06/23 07:58:17;;;;;;;15.03;14.33;;;36.30;1.00;;;;;;5072063;28;20451;-69
2022/06/23 08:00:44;;;;;;;14.37;13.63;;;36.40;1.00;;;;;;5072459;28;20423;-68
2022/06/23 08:03:14;;;;;;;13.57;13.00;;;37.10;1.00;;;;;;5072447;28;20838;-68
2022/06/23 08:05:51;;;;;;;14.83;14.03;;;37.70;1.00;;;;;;5051254;28;20427;-68
2022/06/23 08:08:21;;;;;;;15.10;14.17;;;37.80;1.00;;;;;;5051893;28;20465;-68
2022/06/23 08:12:52;;;;;;;14.10;13.33;;;37.80;1.00;;;;;;5052469;28;20417;-68
2022/06/23 08:13:35;;;;;;;14.13;13.43;;;37.60;1.00;;;;;;5067384;28;20509;-69
2022/06/23 08:18:52;;;;;;;14.73;14.00;;;37.50;1.00;;;;;;5072017;28;20416;-68
2022/06/23 08:21:47;;;;;;;13.87;13.27;;;36.90;1.00;;;;;;5072340;28;20463;-69
2022/06/23 08:24:16;;;;;;;14.50;13.80;;;35.90;1.00;;;;;;5045998;28;20470;-68
2022/06/23 08:26:47;;;;;;;14.07;13.30;;;35.90;1.00;;;;;;5068260;28;20551;-69
2022/06/23 08:29:16;;;;;;;13.20;12.70;;;35.90;1.00;;;;;;5081595;28;20428;-69
2022/06/23 08:31:42;;;;;;;13.37;12.70;;;35.80;1.00;;;;;;5087921;28;20447;-69
2022/06/23 08:34:09;;;;;;;13.97;12.97;;;35.90;1.00;;;;;;5067312;28;20962;-67
2022/06/23 08:36:47;;;;;;;13.77;12.93;;;35.70;1.00;;;;;;5066789;28;20805;-69
2022/06/23 08:39:26;;;;;;;14.87;14.07;;;35.50;1.00;;;;;;5066746;28;20424;-67
2022/06/23 08:42:06;;;;;;;14.27;13.57;;;35.00;1.00;;;;;;5063191;28;20447;-69
2022/06/23 08:44:45;;;;;;;14.37;13.70;;;34.60;1.00;;;;;;5048754;28;20444;-68
2022/06/23 08:47:49;;;;;;;13.93;13.27;;;34.50;1.00;;;;;;5047963;28;20799;-67
2022/06/23 08:50:26;;;;;;;15.27;14.53;;;34.60;1.00;;;;;;5042889;28;20448;-68
2022/06/23 08:52:58;;;;;;;15.37;14.17;;;33.70;1.00;;;;;;5061344;28;20447;-68
2022/06/23 08:55:34;;;;;;;15.20;14.33;;;33.20;1.00;;;;;;5068082;28;20424;-68
2022/06/23 08:58:13;;;;;;;14.27;13.57;;;33.20;1.00;;;;;;5047907;28;20828;-68
2022/06/23 09:00:57;;;;;;;13.53;13.00;;;33.00;1.00;;;;;;5047823;28;20874;-69
2022/06/23 09:03:43;;;;;;;13.83;12.93;;;32.60;1.00;;;;;;5061534;28;20455;-68
2022/06/23 09:06:27;;;;;;;13.87;13.27;;;32.00;1.00;;;;;;5046956;28;20421;-67
2022/06/23 09:09:01;;;;;;;13.67;12.80;;;31.10;1.00;;;;;;5057572;28;20467;-68
2022/06/23 09:11:33;;;;;;;14.37;13.50;;;30.70;2.10;;;;;;5052346;28;20439;-68
2022/06/23 09:14:28;;;;;;;14.67;13.97;;;30.30;2.70;;;;;;5046808;28;20455;-69
2022/06/23 09:17:32;;;;;;;15.53;14.23;;;30.00;2.80;;;;;;5052735;28;20780;-68
2022/06/23 09:20:19;;;;;;;14.27;13.53;;;29.60;3.70;;;;;;5057333;28;20425;-69
2022/06/23 09:23:18;;;;;;;13.43;12.70;;;29.00;4.30;;;;;;5051949;28;20440;-67
2022/06/23 09:26:10;;;;;;;12.80;12.20;;;28.70;5.10;;;;;;5050851;28;20401;-69
2022/06/23 09:28:36;;;;;;;13.50;12.57;;;28.40;5.50;;;;;;5050527;28;20464;-68
2022/06/23 09:31:30;;;;;;;13.53;12.90;;;28.30;4.80;;;;;;5058516;28;21144;-69
2022/06/23 09:34:06;;;;;;;13.60;12.90;;;28.20;5.30;;;;;;5071399;28;20649;-68
2022/06/23 09:36:55;;;;;;;13.00;12.20;;;27.80;6.50;;;;;;5071392;28;20407;-68
2022/06/23 09:39:42;;;;;;;12.70;12.10;;;27.70;6.40;;;;;;5044628;28;20429;-67
2022/06/23 09:42:22;;;;;;;14.00;13.10;;;27.60;6.50;;;;;;5051297;28;20406;-68
2022/06/23 09:44:47;;;;;;;12.90;12.40;;;27.60;6.70;;;;;;5046679;28;20881;-69
2022/06/23 09:47:41;;;;;;;13.33;12.50;;;27.60;6.30;;;;;;5048044;28;20460;-68
2022/06/23 09:50:15;;;;;;;13.23;12.53;;;27.60;6.60;;;;;;5090657;28;20174;-69
2022/06/23 09:53:10;;;;;;;13.97;12.83;;;27.60;6.00;;;;;;5077279;28;20502;-68
2022/06/23 09:55:43;;;;;;;14.00;13.00;;;27.50;6.20;;;;;;5060223;28;20829;-67
2022/06/23 09:58:53;;;;;;;17.57;13.83;;;27.50;6.10;;;;;;5076027;28;20416;-69
2022/06/23 10:01:31;;;;;;;12.90;12.30;;;27.30;6.20;;;;;;5044694;28;20436;-68
2022/06/23 10:04:14;;;;;;;12.73;12.13;;;27.10;7.50;;;;;;5055042;28;20433;-68
2022/06/23 10:07:04;;;;;;;12.30;11.67;;;27.10;7.00;;;;;;5068789;28;20518;-68
2022/06/23 10:09:38;;;;;;;13.40;12.57;;;27.20;7.10;;;;;;5074587;28;20447;-68
2022/06/23 10:12:30;;;;;;;12.17;11.23;;;27.30;6.80;;;;;;5074721;28;20408;-68
2022/06/23 10:15:39;;;;;;;12.70;12.00;;;27.40;7.50;;;;;;5074789;28;20507;-68
2022/06/23 10:18:14;;;;;;;13.73;13.03;;;27.50;6.90;;;;;;5054089;28;21005;-67
2022/06/23 10:20:48;;;;;;;15.30;12.60;;;27.50;7.40;;;;;;5054639;28;20895;-67
2022/06/23 10:23:38;;;;;;;13.17;12.43;;;27.60;7.70;;;;;;5054412;28;21046;-67
2022/06/23 10:26:17;;;;;;;13.17;12.47;;;27.60;7.10;;;;;;5063077;28;20416;-67
2022/06/23 10:29:03;;;;;;;12.97;12.30;;;27.70;5.80;;;;;;5085017;28;20469;-72
2022/06/23 10:31:45;;;;;;;12.73;12.03;;;27.60;7.10;;;;;;5085605;28;20436;-72
2022/06/23 10:34:45;;;;;;;12.83;12.23;;;27.60;7.20;;;;;;5088756;28;20451;-72
2022/06/23 10:37:45;;;;;;;12.47;11.87;;;27.40;6.70;;;;;;5069632;28;20425;-73
2022/06/23 10:40:31;;;;;;;12.00;11.50;;;27.40;6.90;;;;;;5052358;28;20829;-71
2022/06/23 10:43:21;;;;;;;12.73;12.03;;;27.50;7.40;;;;;;5054113;28;20892;-72
2022/06/23 10:45:55;;;;;;;12.90;12.10;;;27.50;7.20;;;;;;5059310;28;20421;-71
2022/06/23 10:48:39;;;;;;;12.97;12.37;;;27.40;7.40;;;;;;5073930;28;20458;-72
2022/06/23 10:51:35;;;;;;;12.93;12.33;;;27.60;7.10;;;;;;5073039;28;20412;-72
2022/06/23 10:54:07;;;;;;;12.60;11.90;;;27.60;7.20;;;;;;5056852;28;20538;-71
2022/06/23 10:56:58;;;;;;;14.63;13.63;;;27.70;5.80;;;;;;5074041;28;20444;-72
2022/06/23 10:59:58;;;;;;;14.10;13.30;;;27.80;5.80;;;;;;5073625;28;20412;-72
2022/06/23 11:03:14;;;;;;;13.60;12.77;;;27.80;6.50;;;;;;5073843;28;20416;-71
2022/06/23 11:06:02;;;;;;;12.63;11.93;;;27.80;6.80;;;;;;5040775;28;20452;-72
2022/06/23 11:08:53;;;;;;;13.07;12.37;;;27.70;7.10;;;;;;5053572;28;20896;-72
2022/06/23 11:12:13;;;;;;;12.80;12.00;;;27.70;6.70;;;;;;5053708;28;20409;-72
2022/06/23 11:15:05;;;;;;;12.20;11.70;;;27.90;6.40;;;;;;5031122;28;20441;-72
2022/06/23 11:17:56;;;;;;;13.10;12.00;;;28.00;6.50;;;;;;5053277;28;20482;-72
2022/06/23 11:20:55;;;;;;;12.47;11.87;;;28.00;6.00;;;;;;5053501;28;20417;-71
2022/06/23 11:23:44;;;;;;;13.20;12.20;;;28.10;6.10;;;;;;5053852;28;20433;-73
2022/06/23 11:26:18;;;;;;;13.53;12.73;;;28.30;5.40;;;;;;5075638;28;20795;-74
2022/06/23 11:29:26;;;;;;;12.50;12.00;;;28.40;4.90;;;;;;5081550;28;20475;-73
2022/06/23 11:32:37;;;;;;;13.77;12.90;;;28.50;5.00;;;;;;5074625;28;20408;-69
2022/06/23 11:35:26;;;;;;;12.10;11.57;;;28.50;4.60;;;;;;5069038;28;20445;-69
2022/06/23 11:38:14;;;;;;;13.60;12.57;;;28.50;5.60;;;;;;5067473;28;20493;-69
2022/06/23 11:41:16;;;;;;;13.23;12.43;;;28.40;4.80;;;;;;5071397;28;20515;-67
2022/06/23 11:44:06;;;;;;;13.97;13.20;;;28.30;4.60;;;;;;5054909;28;20445;-67
2022/06/23 11:46:38;;;;;;;13.87;12.63;;;28.20;4.00;;;;;;5052987;28;20413;-67
2022/06/23 11:49:25;;;;;;;12.83;12.13;;;28.30;4.30;;;;;;5052580;28;20595;-67
2022/06/23 11:52:32;;;;;;;13.27;12.57;;;28.50;4.10;;;;;;5052913;28;20406;-67
2022/06/23 11:54:57;;;;;;;14.03;13.00;;;28.50;3.50;;;;;;5050071;28;20429;-67
2022/06/23 11:57:51;;;;;;;13.70;12.80;;;28.50;3.50;;;;;;5053193;28;20409;-67
2022/06/23 12:00:36;;;;;;;13.50;12.77;;;28.30;4.30;;;;;;5069406;28;20182;-67
2022/06/23 12:03:26;;;;;;;13.03;12.10;;;28.30;3.80;;;;;;5073084;28;20456;-68
2022/06/23 12:06:24;;;;;;;14.17;13.30;;;28.40;3.50;;;;;;5073071;28;20408;-67
2022/06/23 12:09:15;;;;;;;14.07;12.70;;;28.60;3.60;;;;;;5072408;28;20558;-67
2022/06/23 12:11:40;;;;;;;13.13;12.30;;;28.70;3.60;;;;;;5072921;28;20404;-67
2022/06/23 12:14:07;;;;;;;12.60;12.00;;;29.00;3.80;;;;;;5072560;28;20787;-67
2022/06/23 12:16:48;;;;;;;14.60;12.03;;;29.10;3.80;;;;;;5072157;28;20253;-68
2022/06/23 12:19:20;;;;;;;13.17;12.50;;;28.70;3.70;;;;;;5072341;28;20462;-67
2022/06/23 12:21:55;;;;;;;12.20;11.50;;;28.50;3.50;;;;;;5072667;28;20420;-68
2022/06/23 12:24:42;;;;;;;13.00;12.20;;;28.70;3.60;;;;;;5072613;28;20486;-67
2022/06/23 12:27:11;;;;;;;12.83;12.20;;;28.80;3.70;;;;;;5072436;28;20410;-67
2022/06/23 12:29:46;;;;;;;13.37;12.67;;;28.80;3.70;;;;;;5052342;28;20413;-71
2022/06/23 12:32:35;;;;;;;12.60;11.80;;;29.00;3.80;;;;;;5052578;28;20416;-67
2022/06/23 12:35:10;;;;;;;13.73;12.73;;;29.00;2.90;;;;;;5054091;28;20402;-67
2022/06/23 12:38:07;;;;;;;12.67;12.17;;;29.00;2.60;;;;;;5072391;28;20940;-67
2022/06/23 12:40:41;;;;;;;12.93;12.20;;;28.80;2.60;;;;;;5057389;28;20425;-69
2022/06/23 12:43:43;;;;;;;14.33;12.60;;;28.80;3.70;;;;;;5052761;28;20511;-69
2022/06/23 12:46:15;;;;;;;13.87;13.10;;;29.00;3.20;;;;;;5072153;28;20511;-69
2022/06/23 12:48:43;;;;;;;11.83;11.33;;;29.40;3.20;;;;;;5062317;28;20465;-69
2022/06/23 12:51:26;;;;;;;12.43;11.30;;;29.60;2.20;;;;;;5052324;28;20417;-69
2022/06/23 12:54:41;;;;;;;12.87;12.23;;;29.60;1.40;;;;;;5051979;28;20460;-69
2022/06/23 12:57:18;;;;;;;12.90;12.23;;;29.70;1.60;;;;;;5040149;28;20417;-69
2022/06/23 12:59:50;;;;;;;13.33;12.67;;;29.30;1.90;;;;;;5063887;28;20439;-67
2022/06/23 13:02:16;;;;;;;12.47;11.87;;;29.10;1.90;;;;;;5057216;28;20932;-67
2022/06/23 13:04:51;;;;;;;13.27;12.47;;;29.20;2.10;;;;;;5053005;28;20854;-67
2022/06/23 13:07:31;;;;;;;12.50;11.73;;;29.30;2.70;;;;;;5067307;28;20423;-66
2022/06/23 13:10:15;;;;;;;13.20;12.20;;;29.30;2.80;;;;;;5067214;28;20415;-68
2022/06/23 13:12:50;;;;;;;12.83;12.23;;;29.40;3.40;;;;;;5064844;28;20463;-68
2022/06/23 13:15:16;;;;;;;13.13;12.40;;;29.50;3.20;;;;;;5081783;28;20437;-67
2022/06/23 13:17:53;;;;;;;13.03;12.43;;;29.50;2.00;;;;;;5067345;28;20416;-67
2022/06/23 13:20:28;;;;;;;13.77;12.83;;;29.50;1.50;;;;;;5059033;28;20312;-67
2022/06/23 13:23:03;;;;;;;14.47;13.13;;;29.60;1.20;;;;;;5055238;28;20555;-67
2022/06/23 13:25:34;;;;;;;13.00;12.40;;;29.80;1.50;;;;;;5047223;28;20440;-67
2022/06/23 13:28:03;;;;;;;13.80;12.90;;;30.00;1.20;;;;;;5050854;28;20555;-67
2022/06/23 13:30:46;;;;;;;12.87;12.37;;;30.10;1.00;;;;;;5052678;28;20420;-68
2022/06/23 13:33:38;;;;;;;12.90;12.23;;;30.10;1.10;;;;;;5051305;28;20524;-67
2022/06/23 13:36:24;;;;;;;13.03;12.43;;;30.10;1.00;;;;;;5068170;28;20844;-68
2022/06/23 13:39:19;;;;;;;13.30;12.23;;;30.10;1.00;;;;;;5071518;28;20515;-67
2022/06/23 13:42:11;;;;;;;12.83;12.23;;;30.30;1.00;;;;;;5071550;28;20459;-67
2022/06/23 13:44:55;;;;;;;12.77;12.27;;;30.30;1.00;;;;;;5059596;28;20811;-68
2022/06/23 13:47:35;;;;;;;14.17;13.27;;;30.20;1.30;;;;;;5051203;28;20868;-68
2022/06/23 13:50:16;;;;;;;13.17;12.40;;;30.20;1.00;;;;;;5050616;28;20420;-69
2022/06/23 13:52:50;;;;;;;13.37;12.57;;;30.20;1.10;;;;;;5050686;28;20460;-69
2022/06/23 13:55:42;;;;;;;13.17;12.57;;;30.10;1.60;;;;;;5051040;28;20448;-69
2022/06/23 13:58:49;;;;;;;13.40;12.77;;;30.10;1.20;;;;;;5054422;28;20502;-69
2022/06/23 14:01:27;;;;;;;15.57;14.50;;;30.10;1.00;;;;;;5053620;28;20482;-68
2022/06/23 14:04:04;;;;;;;15.10;14.30;;;29.90;1.00;;;;;;5066504;28;20436;-68
2022/06/23 14:06:30;;;;;;;13.13;12.53;;;30.10;1.00;;;;;;5074752;28;20419;-69
2022/06/23 14:08:59;;;;;;;13.70;13.10;;;30.30;1.00;;;;;;5068571;28;20471;-69
2022/06/23 14:11:39;;;;;;;13.70;13.10;;;30.50;1.00;;;;;;5054830;28;20166;-69
2022/06/23 14:14:10;;;;;;;14.70;13.90;;;30.70;1.00;;;;;;5054821;28;20432;-74
2022/06/23 14:16:48;;;;;;;14.83;14.13;;;30.90;1.00;;;;;;5054852;28;20496;-69
2022/06/23 14:19:20;;;;;;;14.20;13.60;;;31.00;1.00;;;;;;5059280;28;20951;-69
2022/06/23 14:21:51;;;;;;;15.10;14.13;;;31.10;1.00;;;;;;5053575;28;20421;-69
2022/06/23 14:24:22;;;;;;;14.77;13.83;;;31.20;1.00;;;;;;5052646;28;20848;-69
2022/06/23 14:27:04;;;;;;;15.43;14.43;;;31.20;1.00;;;;;;5054572;28;20519;-69
2022/06/23 14:29:56;;;;;;;15.47;14.63;;;31.20;1.00;;;;;;5062687;28;20424;-69
2022/06/23 14:32:37;;;;;;;14.57;13.77;;;31.20;1.00;;;;;;5074806;28;20408;-69
2022/06/23 14:35:28;;;;;;;15.63;14.43;;;31.40;1.00;;;;;;5057342;28;20432;-69
2022/06/23 14:38:05;;;;;;;15.20;14.10;;;31.60;1.00;;;;;;5054486;28;20540;-69
2022/06/23 14:41:12;;;;;;;14.90;14.10;;;31.80;1.00;;;;;;5065066;28;20461;-69
2022/06/23 14:44:03;;;;;;;14.00;13.40;;;31.80;1.00;;;;;;5051236;28;20934;-69
2022/06/23 14:46:57;;;;;;;13.83;13.13;;;31.90;1.00;;;;;;5074383;28;20412;-69
2022/06/23 14:49:44;;;;;;;13.63;13.13;;;32.10;1.00;;;;;;5060776;28;20982;-69
2022/06/23 14:52:18;;;;;;;14.33;13.63;;;32.20;1.00;;;;;;5066447;28;20417;-69
2022/06/23 14:54:56;;;;;;;14.13;13.43;;;32.20;1.00;;;;;;5054326;28;20426;-69
2022/06/23 14:57:43;;;;;;;13.70;13.10;;;32.30;1.00;;;;;;5053343;28;20827;-69
2022/06/23 15:00:37;;;;;;;14.57;13.57;;;32.30;1.00;;;;;;5054547;28;20769;-69
2022/06/23 15:03:19;;;;;;;15.10;14.30;;;32.10;1.00;;;;;;5073547;28;20501;-69
2022/06/23 15:06:03;;;;;;;14.47;13.70;;;32.00;1.00;;;;;;5073766;28;20491;-69
2022/06/23 15:08:37;;;;;;;13.47;12.97;;;31.90;1.00;;;;;;5062424;28;20456;-73
2022/06/23 15:11:38;;;;;;;14.40;13.53;;;31.80;1.00;;;;;;5053814;28;20404;-69
2022/06/23 15:14:17;;;;;;;13.67;13.07;;;31.80;1.00;;;;;;5052438;28;20460;-70
2022/06/23 15:16:58;;;;;;;13.73;13.13;;;31.70;1.00;;;;;;5053529;28;20447;-69
2022/06/23 15:19:47;;;;;;;14.37;13.30;;;31.60;1.00;;;;;;5071105;28;20446;-69
2022/06/23 15:25:52;;;;;;;13.90;13.30;;;30.70;1.00;;;;;;5073909;28;20896;-69
2022/06/23 15:28:49;;;;;;;14.50;13.57;;;30.60;1.00;;;;;;5069017;28;20472;-69
2022/06/23 15:31:35;;;;;;;15.30;14.60;;;30.70;1.00;;;;;;5073500;28;20413;-69
2022/06/23 15:34:13;;;;;;;14.37;13.50;;;30.20;1.00;;;;;;5073264;28;20426;-74
2022/06/23 15:36:48;;;;;;;14.50;13.60;;;30.30;1.00;;;;;;5073379;28;20593;-67
2022/06/23 15:39:45;;;;;;;15.20;13.90;;;30.30;1.00;;;;;;5060791;28;20428;-69
2022/06/23 15:42:17;;;;;;;13.57;13.07;;;30.10;1.00;;;;;;5052313;28;20436;-70
2022/06/23 15:44:56;;;;;;;13.80;13.30;;;29.90;1.00;;;;;;5069022;28;20893;-69
2022/06/23 15:47:44;;;;;;;14.40;13.60;;;30.10;1.00;;;;;;5069036;28;20463;-69
2022/06/23 15:50:22;;;;;;;13.50;13.00;;;30.20;1.00;;;;;;5049108;28;20447;-69
2022/06/23 15:53:12;;;;;;;13.63;13.07;;;30.10;1.00;;;;;;5073225;23;20539;-70
2022/06/23 15:56:02;;;;;;;13.33;12.80;;;30.00;1.00;;;;;;5028785;28;20430;-70
2022/06/23 15:58:58;;;;;;;14.20;13.47;;;30.10;1.00;;;;;;4990036;28;20431;-69
2022/06/23 16:01:38;;;;;;;13.57;12.53;;;30.20;1.00;;;;;;5010909;28;20421;-71
2022/06/23 16:04:35;;;;;;;14.53;13.40;;;30.10;1.00;;;;;;5029506;28;20856;-71
2022/06/23 16:07:11;;;;;;;13.93;13.23;;;30.20;1.00;;;;;;5031240;28;20422;-71
2022/06/23 16:09:57;;;;;;;13.50;12.80;;;30.20;1.00;;;;;;5032780;28;20425;-71
2022/06/23 16:12:42;;;;;;;13.90;13.20;;;30.10;1.00;;;;;;5023126;28;20472;-72
2022/06/23 16:15:11;;;;;;;13.00;12.50;;;30.10;1.00;;;;;;5013253;28;20787;-70
2022/06/23 16:17:49;;;;;;;14.33;13.23;;;30.00;1.00;;;;;;5013269;28;20461;-70
2022/06/23 16:20:19;;;;;;;13.93;13.33;;;30.00;1.00;;;;;;5011440;28;20421;-71
2022/06/23 16:23:04;;;;;;;13.83;13.10;;;29.90;1.00;;;;;;5027145;28;20418;-71
2022/06/23 16:25:52;;;;;;;13.40;12.80;;;29.80;1.00;;;;;;5032949;28;20403;-70
2022/06/23 16:28:17;;;;;;;14.60;13.70;;;29.80;1.00;;;;;;5032227;28;20837;-71
2022/06/23 16:30:47;;;;;;;14.93;14.23;;;29.80;1.00;;;;;;5031537;28;20422;-72
2022/06/23 16:33:37;;;;;;;13.90;13.13;;;29.70;1.00;;;;;;5031850;28;20287;-70
2022/06/23 16:36:19;;;;;;;14.30;13.67;;;29.60;1.00;;;;;;5032669;28;20797;-72